sensor_id;sensor_type;location;lat;lon;timestamp;temperature;humidity
67722;SHT31;58309;45.292;11.820;2023-01-28T00:02:24;2.64;78.01
67722;SHT31;58309;45.292;11.820;2023-01-28T00:04:50;2.63;76.73
67722;SHT31;58309;45.292;11.820;2023-01-28T00:07:16;2.64;77.55
67722;SHT31;58309;45.292;11.820;2023-01-28T00:09:41;2.66;76.85
67722;SHT31;58309;45.292;11.820;2023-01-28T00:12:07;2.61;77.77
67722;SHT31;58309;45.292;11.820;2023-01-28T00:14:32;2.64;77.05
67722;SHT31;58309;45.292;11.820;2023-01-28T00:16:58;2.66;77.38
67722;SHT31;58309;45.292;11.820;2023-01-28T00:19:26;2.67;77.43
67722;SHT31;58309;45.292;11.820;2023-01-28T00:21:52;2.66;78.20
67722;SHT31;58309;45.292;11.820;2023-01-28T00:24:17;2.68;77.24
67722;SHT31;58309;45.292;11.820;2023-01-28T00:26:43;2.67;77.53
67722;SHT31;58309;45.292;11.820;2023-01-28T00:29:08;2.67;77.13
67722;SHT31;58309;45.292;11.820;2023-01-28T00:31:34;2.70;77.01
67722;SHT31;58309;45.292;11.820;2023-01-28T00:33:59;2.70;77.34
67722;SHT31;58309;45.292;11.820;2023-01-28T00:36:26;2.72;76.77
67722;SHT31;58309;45.292;11.820;2023-01-28T00:38:56;2.70;76.66
67722;SHT31;58309;45.292;11.820;2023-01-28T00:41:25;2.68;77.64
67722;SHT31;58309;45.292;11.820;2023-01-28T00:43:51;2.64;77.65
67722;SHT31;58309;45.292;11.820;2023-01-28T00:46:18;2.61;78.14
67722;SHT31;58309;45.292;11.820;2023-01-28T00:48:45;2.58;78.38
67722;SHT31;58309;45.292;11.820;2023-01-28T00:51:12;2.57;78.08
67722;SHT31;58309;45.292;11.820;2023-01-28T00:53:38;2.53;78.99
67722;SHT31;58309;45.292;11.820;2023-01-28T00:56:05;2.53;78.29
67722;SHT31;58309;45.292;11.820;2023-01-28T00:58:32;2.53;78.16
67722;SHT31;58309;45.292;11.820;2023-01-28T01:01:06;2.56;77.90
67722;SHT31;58309;45.292;11.820;2023-01-28T01:03:32;2.57;78.19
67722;SHT31;58309;45.292;11.820;2023-01-28T01:05:58;2.56;78.29
67722;SHT31;58309;45.292;11.820;2023-01-28T01:08:23;2.56;78.12
67722;SHT31;58309;45.292;11.820;2023-01-28T01:11:02;2.61;77.52
67722;SHT31;58309;45.292;11.820;2023-01-28T01:13:29;2.61;78.19
67722;SHT31;58309;45.292;11.820;2023-01-28T01:16:14;2.61;78.08
67722;SHT31;58309;45.292;11.820;2023-01-28T01:18:40;2.60;77.74
67722;SHT31;58309;45.292;11.820;2023-01-28T01:21:11;2.58;77.98
67722;SHT31;58309;45.292;11.820;2023-01-28T01:23:38;2.60;77.88
67722;SHT31;58309;45.292;11.820;2023-01-28T01:26:04;2.56;78.23
67722;SHT31;58309;45.292;11.820;2023-01-28T01:28:30;2.57;77.69
67722;SHT31;58309;45.292;11.820;2023-01-28T01:31:01;2.58;77.98
67722;SHT31;58309;45.292;11.820;2023-01-28T01:33:28;2.56;78.59
67722;SHT31;58309;45.292;11.820;2023-01-28T01:35:54;2.52;79.13
67722;SHT31;58309;45.292;11.820;2023-01-28T01:38:20;2.52;79.60
67722;SHT31;58309;45.292;11.820;2023-01-28T01:40:46;2.63;78.53
67722;SHT31;58309;45.292;11.820;2023-01-28T01:43:16;2.67;78.20
67722;SHT31;58309;45.292;11.820;2023-01-28T01:45:43;2.58;78.48
67722;SHT31;58309;45.292;11.820;2023-01-28T01:48:20;2.56;79.13
67722;SHT31;58309;45.292;11.820;2023-01-28T01:50:56;2.43;79.43
67722;SHT31;58309;45.292;11.820;2023-01-28T01:53:24;2.32;79.96
67722;SHT31;58309;45.292;11.820;2023-01-28T01:55:53;2.19;80.30
67722;SHT31;58309;45.292;11.820;2023-01-28T01:58:25;2.05;81.01
67722;SHT31;58309;45.292;11.820;2023-01-28T02:00:52;1.92;81.15
67722;SHT31;58309;45.292;11.820;2023-01-28T02:03:24;1.81;81.71
67722;SHT31;58309;45.292;11.820;2023-01-28T02:05:51;1.71;81.09
67722;SHT31;58309;45.292;11.820;2023-01-28T02:08:17;1.58;81.39
67722;SHT31;58309;45.292;11.820;2023-01-28T02:10:56;1.53;81.93
67722;SHT31;58309;45.292;11.820;2023-01-28T02:13:27;1.40;82.32
67722;SHT31;58309;45.292;11.820;2023-01-28T02:15:54;1.26;82.44
67722;SHT31;58309;45.292;11.820;2023-01-28T02:18:20;1.07;83.06
67722;SHT31;58309;45.292;11.820;2023-01-28T02:29:02;1.40;82.63
67722;SHT31;58309;45.292;11.820;2023-01-28T02:31:33;1.33;82.66
67722;SHT31;58309;45.292;11.820;2023-01-28T02:34:14;1.26;82.94
67722;SHT31;58309;45.292;11.820;2023-01-28T02:39:45;0.93;84.16
67722;SHT31;58309;45.292;11.820;2023-01-28T02:44:49;0.62;85.27
67722;SHT31;58309;45.292;11.820;2023-01-28T02:47:15;0.50;85.92
67722;SHT31;58309;45.292;11.820;2023-01-28T02:50:02;0.37;85.91
67722;SHT31;58309;45.292;11.820;2023-01-28T02:55:45;0.04;87.54
67722;SHT31;58309;45.292;11.820;2023-01-28T03:04:01;-0.07;87.97
67722;SHT31;58309;45.292;11.820;2023-01-28T03:06:49;-0.06;87.95
67722;SHT31;58309;45.292;11.820;2023-01-28T03:09:18;-0.08;88.12
67722;SHT31;58309;45.292;11.820;2023-01-28T03:11:53;-0.22;88.02
67722;SHT31;58309;45.292;11.820;2023-01-28T03:14:39;-0.30;88.71
67722;SHT31;58309;45.292;11.820;2023-01-28T03:20:14;-0.32;89.01
67722;SHT31;58309;45.292;11.820;2023-01-28T03:23:02;-0.35;88.98
67722;SHT31;58309;45.292;11.820;2023-01-28T03:25:53;-0.24;88.89
67722;SHT31;58309;45.292;11.820;2023-01-28T03:28:38;-0.11;88.55
67722;SHT31;58309;45.292;11.820;2023-01-28T03:31:23;-0.07;88.31
67722;SHT31;58309;45.292;11.820;2023-01-28T03:34:09;-0.07;88.27
67722;SHT31;58309;45.292;11.820;2023-01-28T03:36:54;-0.07;88.76
67722;SHT31;58309;45.292;11.820;2023-01-28T03:39:28;-0.08;89.07
67722;SHT31;58309;45.292;11.820;2023-01-28T03:42:14;0.00;89.05
67722;SHT31;58309;45.292;11.820;2023-01-28T03:44:40;0.00;88.94
67722;SHT31;58309;45.292;11.820;2023-01-28T03:49:46;0.04;88.64
67722;SHT31;58309;45.292;11.820;2023-01-28T03:52:15;0.10;88.36
67722;SHT31;58309;45.292;11.820;2023-01-28T03:54:40;0.17;87.69
67722;SHT31;58309;45.292;11.820;2023-01-28T03:57:06;0.20;87.98
67722;SHT31;58309;45.292;11.820;2023-01-28T03:59:32;0.17;87.65
67722;SHT31;58309;45.292;11.820;2023-01-28T04:01:58;0.18;88.27
67722;SHT31;58309;45.292;11.820;2023-01-28T04:04:24;0.21;87.68
67722;SHT31;58309;45.292;11.820;2023-01-28T04:06:53;0.28;87.41
67722;SHT31;58309;45.292;11.820;2023-01-28T04:09:20;0.36;87.53
67722;SHT31;58309;45.292;11.820;2023-01-28T04:11:46;0.45;86.40
67722;SHT31;58309;45.292;11.820;2023-01-28T04:14:12;0.61;86.01
67722;SHT31;58309;45.292;11.820;2023-01-28T04:16:38;0.72;85.18
67722;SHT31;58309;45.292;11.820;2023-01-28T04:19:03;0.81;84.59
67722;SHT31;58309;45.292;11.820;2023-01-28T04:21:29;0.91;84.33
67722;SHT31;58309;45.292;11.820;2023-01-28T04:23:54;0.97;83.91
67722;SHT31;58309;45.292;11.820;2023-01-28T04:26:20;1.02;84.04
67722;SHT31;58309;45.292;11.820;2023-01-28T04:28:45;1.06;83.64
67722;SHT31;58309;45.292;11.820;2023-01-28T04:31:10;1.13;83.47
67722;SHT31;58309;45.292;11.820;2023-01-28T04:33:36;1.16;83.02
67722;SHT31;58309;45.292;11.820;2023-01-28T04:36:02;1.16;82.59
67722;SHT31;58309;45.292;11.820;2023-01-28T04:38:27;1.23;82.47
67722;SHT31;58309;45.292;11.820;2023-01-28T04:40:53;1.23;82.93
67722;SHT31;58309;45.292;11.820;2023-01-28T04:43:19;1.23;82.22
67722;SHT31;58309;45.292;11.820;2023-01-28T04:45:46;1.26;82.37
67722;SHT31;58309;45.292;11.820;2023-01-28T04:48:12;1.32;82.03
67722;SHT31;58309;45.292;11.820;2023-01-28T04:50:38;1.34;81.98
67722;SHT31;58309;45.292;11.820;2023-01-28T04:53:03;1.37;82.63
67722;SHT31;58309;45.292;11.820;2023-01-28T04:55:29;1.39;82.18
67722;SHT31;58309;45.292;11.820;2023-01-28T04:57:54;1.39;82.24
67722;SHT31;58309;45.292;11.820;2023-01-28T05:00:20;1.39;82.43
67722;SHT31;58309;45.292;11.820;2023-01-28T05:02:45;1.39;81.61
67722;SHT31;58309;45.292;11.820;2023-01-28T05:05:11;1.36;82.26
67722;SHT31;58309;45.292;11.820;2023-01-28T05:07:37;1.34;82.62
67722;SHT31;58309;45.292;11.820;2023-01-28T05:10:03;1.34;82.60
67722;SHT31;58309;45.292;11.820;2023-01-28T05:12:28;1.32;82.61
67722;SHT31;58309;45.292;11.820;2023-01-28T05:14:57;1.34;82.36
67722;SHT31;58309;45.292;11.820;2023-01-28T05:17:25;1.37;81.82
67722;SHT31;58309;45.292;11.820;2023-01-28T05:19:50;1.39;82.66
67722;SHT31;58309;45.292;11.820;2023-01-28T05:22:16;1.40;82.10
67722;SHT31;58309;45.292;11.820;2023-01-28T05:24:41;1.36;82.24
67722;SHT31;58309;45.292;11.820;2023-01-28T05:27:07;1.40;82.07
67722;SHT31;58309;45.292;11.820;2023-01-28T05:29:33;1.37;82.10
67722;SHT31;58309;45.292;11.820;2023-01-28T05:31:58;1.42;81.62
67722;SHT31;58309;45.292;11.820;2023-01-28T05:34:24;1.36;82.29
67722;SHT31;58309;45.292;11.820;2023-01-28T05:36:49;1.37;81.69
67722;SHT31;58309;45.292;11.820;2023-01-28T05:39:15;1.42;81.44
67722;SHT31;58309;45.292;11.820;2023-01-28T05:41:41;1.48;80.43
67722;SHT31;58309;45.292;11.820;2023-01-28T05:44:06;1.44;80.36
67722;SHT31;58309;45.292;11.820;2023-01-28T05:46:31;1.44;81.03
67722;SHT31;58309;45.292;11.820;2023-01-28T05:48:57;1.44;81.33
67722;SHT31;58309;45.292;11.820;2023-01-28T05:51:22;1.39;80.95
67722;SHT31;58309;45.292;11.820;2023-01-28T05:53:48;1.37;81.16
67722;SHT31;58309;45.292;11.820;2023-01-28T05:56:13;1.39;81.06
67722;SHT31;58309;45.292;11.820;2023-01-28T05:58:39;1.39;81.20
67722;SHT31;58309;45.292;11.820;2023-01-28T06:01:04;1.34;81.48
67722;SHT31;58309;45.292;11.820;2023-01-28T06:03:30;1.33;82.27
67722;SHT31;58309;45.292;11.820;2023-01-28T06:05:55;1.34;82.15
67722;SHT31;58309;45.292;11.820;2023-01-28T06:08:21;1.40;80.95
67722;SHT31;58309;45.292;11.820;2023-01-28T06:10:46;1.40;81.42
67722;SHT31;58309;45.292;11.820;2023-01-28T06:13:12;1.39;80.85
67722;SHT31;58309;45.292;11.820;2023-01-28T06:15:38;1.36;81.20
67722;SHT31;58309;45.292;11.820;2023-01-28T06:18:03;1.30;81.41
67722;SHT31;58309;45.292;11.820;2023-01-28T06:20:29;1.26;81.08
67722;SHT31;58309;45.292;11.820;2023-01-28T06:22:54;1.17;81.47
67722;SHT31;58309;45.292;11.820;2023-01-28T06:25:20;1.00;82.22
67722;SHT31;58309;45.292;11.820;2023-01-28T06:27:45;0.83;82.55
67722;SHT31;58309;45.292;11.820;2023-01-28T06:30:11;0.76;83.04
67722;SHT31;58309;45.292;11.820;2023-01-28T06:32:37;0.60;83.05
67722;SHT31;58309;45.292;11.820;2023-01-28T06:35:02;0.47;84.10
67722;SHT31;58309;45.292;11.820;2023-01-28T06:37:28;0.36;84.32
67722;SHT31;58309;45.292;11.820;2023-01-28T06:39:54;0.23;84.99
67722;SHT31;58309;45.292;11.820;2023-01-28T06:42:19;0.17;85.29
67722;SHT31;58309;45.292;11.820;2023-01-28T06:44:45;0.11;85.43
67722;SHT31;58309;45.292;11.820;2023-01-28T06:47:10;0.10;85.26
67722;SHT31;58309;45.292;11.820;2023-01-28T06:49:36;0.13;85.31
67722;SHT31;58309;45.292;11.820;2023-01-28T06:52:02;0.14;84.96
67722;SHT31;58309;45.292;11.820;2023-01-28T06:54:29;0.10;85.65
67722;SHT31;58309;45.292;11.820;2023-01-28T06:56:54;0.15;85.39
67722;SHT31;58309;45.292;11.820;2023-01-28T06:59:20;0.15;85.70
67722;SHT31;58309;45.292;11.820;2023-01-28T07:01:45;0.24;85.34
67722;SHT31;58309;45.292;11.820;2023-01-28T07:04:11;0.47;84.36
67722;SHT31;58309;45.292;11.820;2023-01-28T07:06:36;0.60;83.62
67722;SHT31;58309;45.292;11.820;2023-01-28T07:09:02;0.66;83.81
67722;SHT31;58309;45.292;11.820;2023-01-28T07:11:28;0.73;83.83
67722;SHT31;58309;45.292;11.820;2023-01-28T07:13:53;0.81;83.77
67722;SHT31;58309;45.292;11.820;2023-01-28T07:16:19;0.93;82.68
67722;SHT31;58309;45.292;11.820;2023-01-28T07:18:44;1.03;82.39
67722;SHT31;58309;45.292;11.820;2023-01-28T07:21:10;1.04;82.30
67722;SHT31;58309;45.292;11.820;2023-01-28T07:23:35;1.07;82.47
67722;SHT31;58309;45.292;11.820;2023-01-28T07:26:02;1.13;82.18
67722;SHT31;58309;45.292;11.820;2023-01-28T07:28:28;1.13;82.23
67722;SHT31;58309;45.292;11.820;2023-01-28T07:30:53;1.16;82.86
67722;SHT31;58309;45.292;11.820;2023-01-28T07:33:19;1.32;80.71
67722;SHT31;58309;45.292;11.820;2023-01-28T07:35:45;1.51;80.52
67722;SHT31;58309;45.292;11.820;2023-01-28T07:38:11;1.65;79.60
67722;SHT31;58309;45.292;11.820;2023-01-28T07:40:37;1.77;79.23
67722;SHT31;58309;45.292;11.820;2023-01-28T07:43:03;1.86;78.73
67722;SHT31;58309;45.292;11.820;2023-01-28T07:45:29;1.99;78.91
67722;SHT31;58309;45.292;11.820;2023-01-28T07:48:01;2.05;78.36
67722;SHT31;58309;45.292;11.820;2023-01-28T07:50:29;2.15;77.73
67722;SHT31;58309;45.292;11.820;2023-01-28T07:52:55;2.16;78.30
67722;SHT31;58309;45.292;11.820;2023-01-28T07:55:21;2.19;77.70
67722;SHT31;58309;45.292;11.820;2023-01-28T07:57:51;2.15;78.47
67722;SHT31;58309;45.292;11.820;2023-01-28T08:00:18;2.21;78.71
67722;SHT31;58309;45.292;11.820;2023-01-28T08:02:44;2.26;77.96
67722;SHT31;58309;45.292;11.820;2023-01-28T08:05:14;2.36;78.15
67722;SHT31;58309;45.292;11.820;2023-01-28T08:07:40;2.42;78.56
67722;SHT31;58309;45.292;11.820;2023-01-28T08:10:06;2.44;78.63
67722;SHT31;58309;45.292;11.820;2023-01-28T08:12:31;2.43;78.21
67722;SHT31;58309;45.292;11.820;2023-01-28T08:14:57;2.52;78.23
67722;SHT31;58309;45.292;11.820;2023-01-28T08:17:22;2.58;77.55
67722;SHT31;58309;45.292;11.820;2023-01-28T08:19:48;2.67;77.55
67722;SHT31;58309;45.292;11.820;2023-01-28T08:22:13;2.66;77.64
67722;SHT31;58309;45.292;11.820;2023-01-28T08:24:39;2.66;77.78
67722;SHT31;58309;45.292;11.820;2023-01-28T08:27:04;2.64;77.72
67722;SHT31;58309;45.292;11.820;2023-01-28T08:29:31;2.60;78.00
67722;SHT31;58309;45.292;11.820;2023-01-28T08:31:57;2.53;78.08
67722;SHT31;58309;45.292;11.820;2023-01-28T08:34:22;2.57;76.96
67722;SHT31;58309;45.292;11.820;2023-01-28T08:36:48;2.61;76.36
67722;SHT31;58309;45.292;11.820;2023-01-28T08:39:13;2.72;77.02
67722;SHT31;58309;45.292;11.820;2023-01-28T08:41:39;2.95;74.95
67722;SHT31;58309;45.292;11.820;2023-01-28T08:44:04;3.16;75.27
67722;SHT31;58309;45.292;11.820;2023-01-28T08:46:30;3.62;72.93
67722;SHT31;58309;45.292;11.820;2023-01-28T08:48:55;4.33;71.46
67722;SHT31;58309;45.292;11.820;2023-01-28T08:51:21;5.44;67.84
67722;SHT31;58309;45.292;11.820;2023-01-28T08:53:46;6.61;63.78
67722;SHT31;58309;45.292;11.820;2023-01-28T08:56:12;7.45;61.01
67722;SHT31;58309;45.292;11.820;2023-01-28T08:58:38;8.24;59.57
67722;SHT31;58309;45.292;11.820;2023-01-28T09:01:05;8.52;58.23
67722;SHT31;58309;45.292;11.820;2023-01-28T09:03:31;9.27;54.80
67722;SHT31;58309;45.292;11.820;2023-01-28T09:06:02;9.65;54.75
67722;SHT31;58309;45.292;11.820;2023-01-28T09:08:28;9.58;54.18
67722;SHT31;58309;45.292;11.820;2023-01-28T09:10:55;8.65;54.50
67722;SHT31;58309;45.292;11.820;2023-01-28T09:13:21;9.20;54.78
67722;SHT31;58309;45.292;11.820;2023-01-28T09:15:47;8.92;54.24
67722;SHT31;58309;45.292;11.820;2023-01-28T09:18:12;8.42;55.80
67722;SHT31;58309;45.292;11.820;2023-01-28T09:20:38;8.62;54.88
67722;SHT31;58309;45.292;11.820;2023-01-28T09:23:04;9.52;53.88
67722;SHT31;58309;45.292;11.820;2023-01-28T09:25:29;9.77;51.75
67722;SHT31;58309;45.292;11.820;2023-01-28T09:27:56;9.44;52.49
67722;SHT31;58309;45.292;11.820;2023-01-28T09:30:22;9.24;53.36
67722;SHT31;58309;45.292;11.820;2023-01-28T09:32:51;8.89;53.55
67722;SHT31;58309;45.292;11.820;2023-01-28T09:35:17;9.89;51.70
67722;SHT31;58309;45.292;11.820;2023-01-28T09:37:44;9.16;51.58
67722;SHT31;58309;45.292;11.820;2023-01-28T09:40:16;8.87;53.63
67722;SHT31;58309;45.292;11.820;2023-01-28T09:45:24;10.53;50.55
67722;SHT31;58309;45.292;11.820;2023-01-28T09:47:57;11.63;47.36
67722;SHT31;58309;45.292;11.820;2023-01-28T09:50:38;10.97;48.59
67722;SHT31;58309;45.292;11.820;2023-01-28T09:53:10;11.53;47.88
67722;SHT31;58309;45.292;11.820;2023-01-28T09:55:39;10.51;50.03
67722;SHT31;58309;45.292;11.820;2023-01-28T09:58:13;10.40;51.38
67722;SHT31;58309;45.292;11.820;2023-01-28T10:06:49;11.05;49.08
67722;SHT31;58309;45.292;11.820;2023-01-28T10:09:44;10.46;49.65
67722;SHT31;58309;45.292;11.820;2023-01-28T10:18:13;11.55;48.25
67722;SHT31;58309;45.292;11.820;2023-01-28T10:20:51;12.24;47.48
67722;SHT31;58309;45.292;11.820;2023-01-28T10:26:04;11.66;48.34
67722;SHT31;58309;45.292;11.820;2023-01-28T10:28:35;12.11;48.05
67722;SHT31;58309;45.292;11.820;2023-01-28T10:31:01;12.03;46.55
67722;SHT31;58309;45.292;11.820;2023-01-28T10:35:53;10.92;50.33
67722;SHT31;58309;45.292;11.820;2023-01-28T10:38:21;11.46;49.29
67722;SHT31;58309;45.292;11.820;2023-01-28T10:40:48;11.89;46.78
67722;SHT31;58309;45.292;11.820;2023-01-28T10:43:20;12.68;45.21
67722;SHT31;58309;45.292;11.820;2023-01-28T10:46:10;13.55;43.46
67722;SHT31;58309;45.292;11.820;2023-01-28T10:48:45;12.89;44.09
67722;SHT31;58309;45.292;11.820;2023-01-28T10:51:11;12.81;44.65
67722;SHT31;58309;45.292;11.820;2023-01-28T10:53:43;12.73;44.08
67722;SHT31;58309;45.292;11.820;2023-01-28T10:56:16;11.35;46.75
67722;SHT31;58309;45.292;11.820;2023-01-28T10:59:02;11.44;45.70
67722;SHT31;58309;45.292;11.820;2023-01-28T11:01:46;11.23;46.75
67722;SHT31;58309;45.292;11.820;2023-01-28T11:09:45;12.10;45.20
67722;SHT31;58309;45.292;11.820;2023-01-28T11:12:21;12.13;45.10
67722;SHT31;58309;45.292;11.820;2023-01-28T11:14:53;11.69;45.58
67722;SHT31;58309;45.292;11.820;2023-01-28T11:17:21;11.47;46.51
67722;SHT31;58309;45.292;11.820;2023-01-28T11:19:49;10.81;47.22
67722;SHT31;58309;45.292;11.820;2023-01-28T11:22:35;11.44;45.15
67722;SHT31;58309;45.292;11.820;2023-01-28T11:25:06;11.97;45.65
67722;SHT31;58309;45.292;11.820;2023-01-28T11:27:38;12.27;44.90
67722;SHT31;58309;45.292;11.820;2023-01-28T11:30:05;11.83;45.65
67722;SHT31;58309;45.292;11.820;2023-01-28T11:32:32;12.21;45.09
67722;SHT31;58309;45.292;11.820;2023-01-28T11:34:58;12.44;44.82
67722;SHT31;58309;45.292;11.820;2023-01-28T11:37:26;12.30;44.79
67722;SHT31;58309;45.292;11.820;2023-01-28T11:40:15;12.40;45.38
67722;SHT31;58309;45.292;11.820;2023-01-28T11:42:41;13.00;41.84
67722;SHT31;58309;45.292;11.820;2023-01-28T11:45:15;13.72;40.94
67722;SHT31;58309;45.292;11.820;2023-01-28T11:50:36;14.57;39.15
67722;SHT31;58309;45.292;11.820;2023-01-28T11:56:08;12.56;42.13
67722;SHT31;58309;45.292;11.820;2023-01-28T11:59:02;12.92;40.89
67722;SHT31;58309;45.292;11.820;2023-01-28T12:01:44;12.21;43.80
67722;SHT31;58309;45.292;11.820;2023-01-28T12:04:22;10.65;47.09
67722;SHT31;58309;45.292;11.820;2023-01-28T12:20:30;14.56;38.73
67722;SHT31;58309;45.292;11.820;2023-01-28T12:26:19;13.81;41.27
67722;SHT31;58309;45.292;11.820;2023-01-28T12:32:29;12.83;40.89
67722;SHT31;58309;45.292;11.820;2023-01-28T12:38:14;12.14;41.70
67722;SHT31;58309;45.292;11.820;2023-01-28T12:45:40;12.56;42.63
67722;SHT31;58309;45.292;11.820;2023-01-28T12:48:43;12.58;41.83
67722;SHT31;58309;45.292;11.820;2023-01-28T12:51:14;12.55;41.79
67722;SHT31;58309;45.292;11.820;2023-01-28T12:56:16;11.44;46.22
67722;SHT31;58309;45.292;11.820;2023-01-28T12:59:03;11.25;44.95
67722;SHT31;58309;45.292;11.820;2023-01-28T13:01:37;11.31;45.03
67722;SHT31;58309;45.292;11.820;2023-01-28T13:07:00;11.32;45.00
67722;SHT31;58309;45.292;11.820;2023-01-28T13:09:29;10.43;47.17
67722;SHT31;58309;45.292;11.820;2023-01-28T13:11:57;10.37;49.23
67722;SHT31;58309;45.292;11.820;2023-01-28T13:14:31;9.57;49.02
67722;SHT31;58309;45.292;11.820;2023-01-28T13:17:11;9.19;49.77
67722;SHT31;58309;45.292;11.820;2023-01-28T13:19:41;9.20;50.12
67722;SHT31;58309;45.292;11.820;2023-01-28T13:24:51;9.41;52.10
67722;SHT31;58309;45.292;11.820;2023-01-28T13:27:27;9.16;53.67
67722;SHT31;58309;45.292;11.820;2023-01-28T13:30:21;8.99;53.18
67722;SHT31;58309;45.292;11.820;2023-01-28T13:32:55;8.72;51.74
67722;SHT31;58309;45.292;11.820;2023-01-28T13:35:33;8.68;51.84
67722;SHT31;58309;45.292;11.820;2023-01-28T13:38:07;8.48;52.47
67722;SHT31;58309;45.292;11.820;2023-01-28T13:40:33;8.38;52.82
67722;SHT31;58309;45.292;11.820;2023-01-28T13:43:05;8.41;53.80
67722;SHT31;58309;45.292;11.820;2023-01-28T13:45:31;8.46;54.98
67722;SHT31;58309;45.292;11.820;2023-01-28T13:48:05;8.49;53.80
67722;SHT31;58309;45.292;11.820;2023-01-28T13:50:41;8.28;53.35
67722;SHT31;58309;45.292;11.820;2023-01-28T13:55:56;8.20;52.43
67722;SHT31;58309;45.292;11.820;2023-01-28T14:01:56;8.20;55.08
67722;SHT31;58309;45.292;11.820;2023-01-28T14:04:46;8.20;54.83
67722;SHT31;58309;45.292;11.820;2023-01-28T14:10:32;8.15;53.72
67722;SHT31;58309;45.292;11.820;2023-01-28T14:18:40;8.24;53.34
67722;SHT31;58309;45.292;11.820;2023-01-28T14:21:19;8.28;53.78
67722;SHT31;58309;45.292;11.820;2023-01-28T14:23:55;8.10;53.14
67722;SHT31;58309;45.292;11.820;2023-01-28T14:32:18;8.00;53.56
67722;SHT31;58309;45.292;11.820;2023-01-28T14:34:46;8.00;55.27
67722;SHT31;58309;45.292;11.820;2023-01-28T14:37:26;8.07;53.99
67722;SHT31;58309;45.292;11.820;2023-01-28T14:40:05;8.11;53.78
67722;SHT31;58309;45.292;11.820;2023-01-28T14:42:38;8.14;55.48
67722;SHT31;58309;45.292;11.820;2023-01-28T14:48:24;8.12;55.64
67722;SHT31;58309;45.292;11.820;2023-01-28T14:59:33;7.80;55.18
67722;SHT31;58309;45.292;11.820;2023-01-28T15:02:16;7.80;56.05
67722;SHT31;58309;45.292;11.820;2023-01-28T15:04:42;7.73;57.80
67722;SHT31;58309;45.292;11.820;2023-01-28T15:07:20;7.63;57.24
67722;SHT31;58309;45.292;11.820;2023-01-28T15:09:58;7.52;58.46
67722;SHT31;58309;45.292;11.820;2023-01-28T15:12:24;7.35;57.87
67722;SHT31;58309;45.292;11.820;2023-01-28T15:14:49;7.22;57.65
67722;SHT31;58309;45.292;11.820;2023-01-28T15:17:26;7.12;58.28
67722;SHT31;58309;45.292;11.820;2023-01-28T15:19:56;6.97;58.25
67722;SHT31;58309;45.292;11.820;2023-01-28T15:22:26;6.85;59.73
67722;SHT31;58309;45.292;11.820;2023-01-28T15:24:53;6.74;60.04
67722;SHT31;58309;45.292;11.820;2023-01-28T15:27:25;6.64;60.53
67722;SHT31;58309;45.292;11.820;2023-01-28T15:29:55;6.46;60.60
67722;SHT31;58309;45.292;11.820;2023-01-28T15:32:26;6.37;61.77
67722;SHT31;58309;45.292;11.820;2023-01-28T15:34:52;6.28;62.40
67722;SHT31;58309;45.292;11.820;2023-01-28T15:37:18;6.19;62.26
67722;SHT31;58309;45.292;11.820;2023-01-28T15:39:44;6.03;62.89
67722;SHT31;58309;45.292;11.820;2023-01-28T15:42:20;5.95;63.75
67722;SHT31;58309;45.292;11.820;2023-01-28T15:44:48;5.96;63.59
67722;SHT31;58309;45.292;11.820;2023-01-28T15:47:29;5.82;64.58
67722;SHT31;58309;45.292;11.820;2023-01-28T15:49:59;5.67;65.33
67722;SHT31;58309;45.292;11.820;2023-01-28T15:52:43;5.44;65.84
67722;SHT31;58309;45.292;11.820;2023-01-28T15:57:53;5.05;67.38
67722;SHT31;58309;45.292;11.820;2023-01-28T16:00:24;4.97;67.75
67722;SHT31;58309;45.292;11.820;2023-01-28T16:02:52;4.82;67.91
67722;SHT31;58309;45.292;11.820;2023-01-28T16:05:31;4.61;68.69
67722;SHT31;58309;45.292;11.820;2023-01-28T16:07:57;4.51;69.53
67722;SHT31;58309;45.292;11.820;2023-01-28T16:10:26;4.44;69.89
67722;SHT31;58309;45.292;11.820;2023-01-28T16:13:18;4.40;69.99
67722;SHT31;58309;45.292;11.820;2023-01-28T16:15:46;4.24;70.70
67722;SHT31;58309;45.292;11.820;2023-01-28T16:18:41;4.03;71.02
67722;SHT31;58309;45.292;11.820;2023-01-28T16:21:10;3.86;71.54
67722;SHT31;58309;45.292;11.820;2023-01-28T16:23:37;3.75;72.02
67722;SHT31;58309;45.292;11.820;2023-01-28T16:26:17;3.58;72.13
67722;SHT31;58309;45.292;11.820;2023-01-28T16:28:43;3.49;73.16
67722;SHT31;58309;45.292;11.820;2023-01-28T16:31:10;3.45;74.47
67722;SHT31;58309;45.292;11.820;2023-01-28T16:33:35;3.46;75.19
67722;SHT31;58309;45.292;11.820;2023-01-28T16:36:01;3.34;74.89
67722;SHT31;58309;45.292;11.820;2023-01-28T16:38:27;3.31;75.46
67722;SHT31;58309;45.292;11.820;2023-01-28T16:40:52;3.25;75.17
67722;SHT31;58309;45.292;11.820;2023-01-28T16:43:18;3.25;75.97
67722;SHT31;58309;45.292;11.820;2023-01-28T16:45:44;3.16;75.93
67722;SHT31;58309;45.292;11.820;2023-01-28T16:48:11;3.05;76.27
67722;SHT31;58309;45.292;11.820;2023-01-28T16:50:41;2.97;77.01
67722;SHT31;58309;45.292;11.820;2023-01-28T16:53:22;2.84;77.90
67722;SHT31;58309;45.292;11.820;2023-01-28T16:55:50;2.83;80.65
67722;SHT31;58309;45.292;11.820;2023-01-28T16:58:19;2.76;79.31
67722;SHT31;58309;45.292;11.820;2023-01-28T17:00:45;2.67;78.99
67722;SHT31;58309;45.292;11.820;2023-01-28T17:03:11;2.58;79.42
67722;SHT31;58309;45.292;11.820;2023-01-28T17:05:37;2.44;79.44
67722;SHT31;58309;45.292;11.820;2023-01-28T17:08:03;2.43;79.64
67722;SHT31;58309;45.292;11.820;2023-01-28T17:10:29;2.29;79.79
67722;SHT31;58309;45.292;11.820;2023-01-28T17:12:54;2.13;80.06
67722;SHT31;58309;45.292;11.820;2023-01-28T17:15:20;2.06;81.36
67722;SHT31;58309;45.292;11.820;2023-01-28T17:17:49;1.99;81.71
67722;SHT31;58309;45.292;11.820;2023-01-28T17:20:17;1.92;82.89
67722;SHT31;58309;45.292;11.820;2023-01-28T17:22:43;1.81;82.53
67722;SHT31;58309;45.292;11.820;2023-01-28T17:25:09;1.70;83.38
67722;SHT31;58309;45.292;11.820;2023-01-28T17:27:35;1.70;83.41
67722;SHT31;58309;45.292;11.820;2023-01-28T17:30:00;1.64;83.17
67722;SHT31;58309;45.292;11.820;2023-01-28T17:32:26;1.55;82.95
67722;SHT31;58309;45.292;11.820;2023-01-28T17:34:51;1.57;82.92
67722;SHT31;58309;45.292;11.820;2023-01-28T17:37:17;1.58;83.09
67722;SHT31;58309;45.292;11.820;2023-01-28T17:39:42;1.57;83.54
67722;SHT31;58309;45.292;11.820;2023-01-28T17:42:08;1.53;83.42
67722;SHT31;58309;45.292;11.820;2023-01-28T17:44:33;1.42;83.27
67722;SHT31;58309;45.292;11.820;2023-01-28T17:46:59;1.36;83.44
67722;SHT31;58309;45.292;11.820;2023-01-28T17:49:25;1.33;83.69
67722;SHT31;58309;45.292;11.820;2023-01-28T17:51:50;1.29;83.63
67722;SHT31;58309;45.292;11.820;2023-01-28T17:54:17;1.26;83.42